Plainview, Texas
Current Conditions -  °F | °C
As of 11:35 PM on Monday 26 Jan 2015 (Local Time) from KPVW Reporting Station
Clear Clear  
Wind Chill: 35°   Ceiling: Unl
Heat Index: 40°   Visibility: 10mi
Dew Point: 33°   Wind: 7mph
Humidity: 78%   Direction: 310°NW
Pressure: 30.22"   Gusts: NA
Location:  34.2°N, 101.69°W
Report Text: KPVW 270535Z AUTO 31006KT 10SM CLR 04/01 A3022 RMK AO2 T00430007
Loading
Personal Weather Stations






























Interactive Weather Map New forecast layout! Learn more

10-Day Weather Forecast

Advertisements
Track Severe Weather on mobile